Houmet Essouk, Tunisia
Current Conditions -  °F | °C
As of 5:30 AM on Monday 26 Jan 2015 (Local Time) from DTTJ Reporting Station
Few Clouds Few Clouds  
Wind Chill: 50°   Ceiling: Unl
Heat Index: 50°   Visibility: 5mi
Dew Point: 39°   Wind: 12mph
Humidity: 66%   Direction: 280°W
Pressure: 29.91"   Gusts: NA
Location:  33.87°N, 10.86°E
Report Text: DTTJ 260430Z 28010KT 8000 FEW020 10/04 Q1013 NOSIG
Loading
Personal Weather Stations






























Interactive Weather Map New forecast layout! Learn more

10-Day Weather Forecast

Advertisements
Track Severe Weather on mobile